createdAt,value
2023-04-08T00:01:22.089Z,7.70
2023-04-08T00:03:50.560Z,8.53
2023-04-08T00:06:18.743Z,10.83
2023-04-08T00:08:46.989Z,9.87
2023-04-08T00:11:15.302Z,8.63
2023-04-08T00:13:44.985Z,7.33
2023-04-08T00:16:13.189Z,7.57
2023-04-08T00:21:23.974Z,12.73
2023-04-08T00:23:52.264Z,7.10
2023-04-08T00:26:21.381Z,8.73
2023-04-08T00:28:51.324Z,7.33
2023-04-08T00:31:19.900Z,8.17
2023-04-08T00:33:48.260Z,8.87
2023-04-08T00:36:16.572Z,9.30
2023-04-08T00:38:44.906Z,10.73
2023-04-08T00:41:14.704Z,11.70
2023-04-08T00:43:43.056Z,8.93
2023-04-08T00:46:13.361Z,9.67
2023-04-08T00:48:41.711Z,10.37
2023-04-08T00:51:09.989Z,7.83
2023-04-08T00:53:38.337Z,9.07
2023-04-08T00:56:06.676Z,10.00
2023-04-08T00:58:35.061Z,9.07
2023-04-08T01:01:09.137Z,9.10
2023-04-08T01:03:48.285Z,9.40
2023-04-08T01:06:24.979Z,9.60
2023-04-08T01:08:54.291Z,7.83
2023-04-08T01:11:22.608Z,8.80
2023-04-08T01:13:53.451Z,12.03
2023-04-08T01:16:23.629Z,7.80
2023-04-08T01:18:55.591Z,9.67
2023-04-08T01:21:28.952Z,9.67
2023-04-08T01:24:05.411Z,10.13
2023-04-08T01:26:36.601Z,9.83
2023-04-08T01:29:06.424Z,8.63
2023-04-08T01:31:36.642Z,8.57
2023-04-08T01:34:06.985Z,10.07
2023-04-08T01:36:36.773Z,10.67
2023-04-08T01:39:06.790Z,8.97
2023-04-08T01:41:37.288Z,8.70
2023-04-08T01:44:06.874Z,7.33
2023-04-08T01:46:36.752Z,8.23
2023-04-08T01:49:06.899Z,7.83
2023-04-08T01:51:38.861Z,8.07
2023-04-08T01:54:07.765Z,9.07
2023-04-08T01:56:40.319Z,9.27
2023-04-08T01:59:12.878Z,8.87
2023-04-08T02:01:42.915Z,10.80
2023-04-08T02:04:11.389Z,8.10
2023-04-08T02:06:39.883Z,8.43
2023-04-08T02:09:08.422Z,7.97
2023-04-08T02:11:38.823Z,8.30
2023-04-08T02:14:07.198Z,10.10
2023-04-08T02:16:42.522Z,11.07
2023-04-08T02:19:16.807Z,9.97
2023-04-08T02:21:50.240Z,8.40
2023-04-08T02:24:20.051Z,9.07
2023-04-08T02:26:51.875Z,8.27
2023-04-08T02:29:20.708Z,9.00
2023-04-08T02:31:51.148Z,8.17
2023-04-08T02:34:22.193Z,7.30
2023-04-08T02:36:51.152Z,7.83
2023-04-08T02:39:19.652Z,7.80
2023-04-08T02:41:52.149Z,8.20
2023-04-08T02:44:23.261Z,8.33
2023-04-08T02:46:51.921Z,9.87
2023-04-08T02:49:20.161Z,8.50
2023-04-08T02:51:48.454Z,8.90
2023-04-08T02:54:16.745Z,7.10
2023-04-08T02:56:45.008Z,8.93
2023-04-08T02:59:14.703Z,8.43
2023-04-08T03:01:43.607Z,10.80
2023-04-08T03:04:11.893Z,9.53
2023-04-08T03:06:40.180Z,7.97
2023-04-08T03:09:08.436Z,8.93
2023-04-08T03:11:36.710Z,8.80
2023-04-08T03:14:04.966Z,9.03
2023-04-08T03:16:34.645Z,9.27
2023-04-08T03:19:02.922Z,8.30
2023-04-08T03:21:32.245Z,9.63
2023-04-08T03:24:00.772Z,8.47
2023-04-08T03:26:29.195Z,8.07
2023-04-08T03:28:57.803Z,9.83
2023-04-08T03:31:27.398Z,8.83
2023-04-08T03:33:57.102Z,8.50
2023-04-08T03:36:26.839Z,9.10
2023-04-08T03:38:55.133Z,7.40
2023-04-08T03:41:23.385Z,8.33
2023-04-08T03:43:51.699Z,9.10
2023-04-08T03:46:19.994Z,8.97
2023-04-08T03:48:48.561Z,7.50
2023-04-08T03:51:18.532Z,7.33
2023-04-08T03:53:48.153Z,7.63
2023-04-08T03:56:16.599Z,9.23
2023-04-08T03:58:44.860Z,9.60
2023-04-08T04:01:13.095Z,7.80
2023-04-08T04:03:41.541Z,7.93
2023-04-08T04:06:10.267Z,8.60
2023-04-08T04:08:40.010Z,8.90
2023-04-08T04:11:08.305Z,9.63
2023-04-08T04:13:36.981Z,8.83
2023-04-08T04:16:05.745Z,8.43
2023-04-08T04:18:34.043Z,8.27
2023-04-08T04:21:02.459Z,9.10
2023-04-08T04:23:30.731Z,8.90
2023-04-08T04:26:00.335Z,7.50
2023-04-08T04:28:28.658Z,9.13
2023-04-08T04:30:57.063Z,8.83
2023-04-08T04:33:25.766Z,9.17
2023-04-08T04:35:54.134Z,8.37
2023-04-08T04:38:22.524Z,13.10
2023-04-08T04:40:51.222Z,9.87
2023-04-08T04:43:20.878Z,9.27
2023-04-08T04:45:49.109Z,7.00
2023-04-08T04:48:17.316Z,9.87
2023-04-08T04:50:45.601Z,8.57
2023-04-08T04:53:13.851Z,9.07
2023-04-08T04:55:42.094Z,10.40
2023-04-08T04:58:10.413Z,11.03
2023-04-08T05:00:40.097Z,10.50
2023-04-08T05:03:08.685Z,12.33
2023-04-08T05:05:36.974Z,13.47
2023-04-08T05:08:05.445Z,12.00
2023-04-08T05:10:33.676Z,16.67
2023-04-08T05:13:01.949Z,11.07
2023-04-08T05:15:30.117Z,12.90
2023-04-08T05:17:59.738Z,11.90
2023-04-08T05:20:28.042Z,11.53
2023-04-08T05:22:56.457Z,10.83
2023-04-08T05:25:24.799Z,11.83
2023-04-08T05:27:53.495Z,10.67
2023-04-08T05:30:22.130Z,10.00
2023-04-08T05:32:50.899Z,11.20
2023-04-08T05:35:20.599Z,10.63
2023-04-08T05:37:48.961Z,10.93
2023-04-08T05:40:17.647Z,11.70
2023-04-08T05:42:46.336Z,9.90
2023-04-08T05:45:14.893Z,11.43
2023-04-08T05:52:52.789Z,13.30
2023-04-08T05:55:41.662Z,12.77
2023-04-08T05:58:14.258Z,12.77
2023-04-08T06:00:59.135Z,12.50
2023-04-08T06:03:49.604Z,10.60
2023-04-08T06:06:48.365Z,14.40
2023-04-08T06:10:01.668Z,13.60
2023-04-08T06:13:05.732Z,12.10
2023-04-08T06:16:26.092Z,10.80
2023-04-08T06:55:35.482Z,12.37
2023-04-08T06:58:04.517Z,11.47
2023-04-08T07:00:33.131Z,12.73
2023-04-08T07:03:02.193Z,12.60
2023-04-08T07:05:49.230Z,12.53
2023-04-08T07:08:17.724Z,12.67
2023-04-08T07:10:47.915Z,13.57
2023-04-08T07:14:11.048Z,11.50
2023-04-08T07:16:40.179Z,11.47
2023-04-08T07:19:08.809Z,13.83
2023-04-08T07:21:41.822Z,10.93
2023-04-08T07:24:10.578Z,12.33
2023-04-08T07:26:41.611Z,12.47
2023-04-08T07:29:10.506Z,11.07
2023-04-08T07:31:39.186Z,13.63
2023-04-08T07:34:07.895Z,12.00
2023-04-08T07:36:36.566Z,10.07
2023-04-08T07:39:05.518Z,11.33
2023-04-08T07:41:34.288Z,12.23
2023-04-08T07:44:04.554Z,11.20
2023-04-08T07:46:34.209Z,11.97
2023-04-08T07:49:03.041Z,10.50
2023-04-08T07:51:31.594Z,9.27
2023-04-08T07:54:01.289Z,10.37
2023-04-08T07:56:29.857Z,11.57
2023-04-08T07:58:58.746Z,11.13
2023-04-08T08:01:31.526Z,11.53
2023-04-08T08:04:00.820Z,11.30
2023-04-08T08:06:29.685Z,10.67
2023-04-08T08:08:58.399Z,11.73
2023-04-08T08:11:28.181Z,12.77
2023-04-08T08:13:59.262Z,11.23
2023-04-08T08:16:31.966Z,11.50
2023-04-08T08:19:00.939Z,10.73
2023-04-08T08:21:29.603Z,11.50
2023-04-08T08:23:59.755Z,10.10
2023-04-08T08:26:28.827Z,10.33
2023-04-08T08:28:57.601Z,10.13
2023-04-08T08:31:26.223Z,8.70
2023-04-08T08:33:56.532Z,10.17
2023-04-08T08:36:28.300Z,10.10
2023-04-08T08:38:57.032Z,8.90
2023-04-08T08:41:25.538Z,9.43
2023-04-08T08:43:55.207Z,8.77
2023-04-08T08:46:23.845Z,9.83
2023-04-08T08:48:52.744Z,9.20
2023-04-08T08:51:23.204Z,9.47
2023-04-08T08:56:35.270Z,9.60
2023-04-08T08:59:04.336Z,11.40
2023-04-08T09:01:34.840Z,8.50
2023-04-08T09:04:12.769Z,10.10
2023-04-08T09:06:43.472Z,10.70
2023-04-08T09:09:12.913Z,9.63
2023-04-08T09:11:43.716Z,8.50
2023-04-08T12:07:06.418Z,6.23
2023-04-08T12:09:37.603Z,6.60
2023-04-08T12:12:06.319Z,6.57
2023-04-08T12:14:35.119Z,6.40
2023-04-08T12:17:03.823Z,4.77
2023-04-08T12:19:34.197Z,6.20
2023-04-08T12:22:05.352Z,6.67
2023-04-08T12:24:34.309Z,6.83
2023-04-08T12:27:04.850Z,6.13
2023-04-08T12:29:33.604Z,7.80
2023-04-08T12:32:02.741Z,7.97
2023-04-08T12:34:31.561Z,6.70
2023-04-08T12:37:00.467Z,5.53
2023-04-08T12:39:30.548Z,6.17
2023-04-08T12:42:00.817Z,6.20
2023-04-08T12:44:32.465Z,4.63
2023-04-08T12:47:07.942Z,5.97
2023-04-08T12:49:49.833Z,6.33
2023-04-08T12:52:20.027Z,6.47
2023-04-08T12:54:55.676Z,4.80
2023-04-08T12:57:27.489Z,5.00
2023-04-08T13:00:01.797Z,3.93
2023-04-08T13:02:39.466Z,5.57
2023-04-08T13:05:10.822Z,3.53
2023-04-08T13:07:45.827Z,4.57
2023-04-08T13:13:26.972Z,5.10
2023-04-08T13:15:56.668Z,5.00
2023-04-08T13:18:25.336Z,5.07
2023-04-08T13:20:54.510Z,6.03
2023-04-08T13:23:23.137Z,5.93
2023-04-08T13:25:53.809Z,3.90
2023-04-08T13:28:22.476Z,4.80
2023-04-08T13:30:51.286Z,4.87
2023-04-08T13:33:19.861Z,5.20
2023-04-08T13:35:51.278Z,5.23
2023-04-08T13:38:20.068Z,6.90
2023-04-08T13:40:53.587Z,5.17
2023-04-08T13:43:22.719Z,5.33
2023-04-08T13:45:51.342Z,5.10
2023-04-08T13:48:19.821Z,4.73
2023-04-08T13:50:49.339Z,5.00
2023-04-08T13:53:18.182Z,3.67
2023-04-08T13:55:46.719Z,3.30
2023-04-08T13:58:23.441Z,5.27
2023-04-08T14:00:53.171Z,4.73
2023-04-08T14:03:22.368Z,3.73
2023-04-08T14:05:51.221Z,4.57
2023-04-08T14:08:25.218Z,3.87
2023-04-08T14:10:53.863Z,3.40
2023-04-08T14:13:34.514Z,5.30
2023-04-08T14:16:04.024Z,5.13
2023-04-08T14:18:35.654Z,5.93
2023-04-08T14:21:05.521Z,4.83
2023-04-08T14:23:34.113Z,4.43
2023-04-08T14:26:03.027Z,4.00
2023-04-08T14:28:32.894Z,3.57
2023-04-08T14:31:01.345Z,3.73
2023-04-08T14:33:29.756Z,4.77
2023-04-08T14:36:09.151Z,4.03
2023-04-08T14:38:39.258Z,2.90
2023-04-08T14:41:08.320Z,4.27
2023-04-08T14:43:38.238Z,3.43
2023-04-08T14:46:06.661Z,3.00
2023-04-08T14:48:35.155Z,5.17
2023-04-08T14:51:03.681Z,4.57
2023-04-08T14:53:32.154Z,5.23
2023-04-08T14:56:00.873Z,5.30
2023-04-08T14:58:29.297Z,4.23
2023-04-08T15:00:59.092Z,4.43
2023-04-08T15:03:27.587Z,3.03
2023-04-08T15:05:59.691Z,4.90
2023-04-08T15:08:28.430Z,4.93
2023-04-08T15:10:57.141Z,4.23
2023-04-08T15:13:25.729Z,3.87
2023-04-08T15:15:54.413Z,4.23
2023-04-08T16:33:18.375Z,4.03
2023-04-08T16:35:49.294Z,2.57
2023-04-08T16:38:17.783Z,4.23
2023-04-08T16:40:46.186Z,3.90
2023-04-08T16:43:15.704Z,3.53
2023-04-08T16:45:44.399Z,4.13
2023-04-08T16:48:13.749Z,3.83
2023-04-08T16:50:42.719Z,2.37
2023-04-08T16:53:12.835Z,4.97
2023-04-08T16:55:41.231Z,3.77
2023-04-08T16:58:10.112Z,3.30
2023-04-08T17:00:40.485Z,3.37
2023-04-08T17:08:31.920Z,2.63
2023-04-08T17:11:10.307Z,4.07
2023-04-08T17:13:39.857Z,3.53
2023-04-08T17:16:12.603Z,2.57
2023-04-08T17:18:41.230Z,3.93
2023-04-08T17:21:10.296Z,3.27
2023-04-08T17:23:38.888Z,4.00
2023-04-08T17:26:09.335Z,3.13
2023-04-08T17:28:38.094Z,3.00
2023-04-08T17:31:06.705Z,3.27
2023-04-08T17:33:35.420Z,6.00
2023-04-08T17:36:04.378Z,7.07
2023-04-08T17:38:34.378Z,4.73
2023-04-08T17:41:13.439Z,3.40
2023-04-08T17:43:45.849Z,2.77
2023-04-08T17:46:14.295Z,2.67
2023-04-08T17:48:43.383Z,4.40
2023-04-08T17:51:11.904Z,3.47
2023-04-08T17:53:40.318Z,4.47
2023-04-08T17:56:09.054Z,4.57
2023-04-08T17:58:38.872Z,3.10
2023-04-08T18:01:07.392Z,2.87
2023-04-08T18:03:35.919Z,2.10
2023-04-08T18:06:08.940Z,2.77
2023-04-08T18:08:37.528Z,4.80
2023-04-08T18:11:06.684Z,3.03
2023-04-08T18:13:35.472Z,3.73
2023-04-08T18:16:05.601Z,4.33
2023-04-08T18:18:34.178Z,2.40
2023-04-08T18:21:02.610Z,3.07
2023-04-08T18:23:31.419Z,2.87
2023-04-08T18:26:00.510Z,3.67
2023-04-08T18:28:29.054Z,3.67
2023-04-08T18:30:57.664Z,2.93
2023-04-08T18:33:27.622Z,3.50
2023-04-08T18:35:57.707Z,3.47
2023-04-08T18:38:27.977Z,2.67
2023-04-08T18:40:56.368Z,2.80
2023-04-08T18:43:24.839Z,3.23
2023-04-08T18:45:53.376Z,3.07
2023-04-08T18:48:21.889Z,3.97
2023-04-08T18:50:51.916Z,2.80
2023-04-08T18:53:20.431Z,3.77
2023-04-08T18:55:49.120Z,2.60
2023-04-08T18:58:17.545Z,3.13
2023-04-08T19:00:45.928Z,2.53
2023-04-08T19:03:14.505Z,3.00
2023-04-08T19:05:46.662Z,1.67
2023-04-08T19:08:16.636Z,3.20
2023-04-08T19:10:45.457Z,3.67
2023-04-08T19:13:13.970Z,4.33
2023-04-08T19:15:43.160Z,4.80
2023-04-08T19:18:11.641Z,4.93
2023-04-08T19:20:40.096Z,5.23
2023-04-08T19:23:08.625Z,7.17
2023-04-08T19:25:38.980Z,7.27
2023-04-08T19:28:09.177Z,6.87
2023-04-08T19:30:38.816Z,5.73
2023-04-08T19:33:08.986Z,7.07
2023-04-08T19:35:38.185Z,6.13
2023-04-08T19:38:06.677Z,6.20
2023-04-08T19:40:35.121Z,8.03
2023-04-08T19:43:05.166Z,11.60
2023-04-08T19:45:34.453Z,10.83
2023-04-08T19:48:03.065Z,9.43
2023-04-08T19:50:31.576Z,9.63
2023-04-08T19:53:00.163Z,10.33
2023-04-08T19:55:28.582Z,10.20
2023-04-08T19:57:57.778Z,9.03
2023-04-08T20:00:29.400Z,9.57
2023-04-08T20:02:57.950Z,9.13
2023-04-08T20:05:26.653Z,9.63
2023-04-08T20:07:55.265Z,10.33
2023-04-08T20:10:23.867Z,10.10
2023-04-08T20:12:53.639Z,8.07
2023-04-08T20:15:25.220Z,10.10
2023-04-08T20:17:56.632Z,10.73
2023-04-08T20:20:26.299Z,11.17
2023-04-08T20:22:56.133Z,11.33
2023-04-08T20:25:24.625Z,12.33
2023-04-08T20:27:53.213Z,12.07
2023-04-08T20:30:21.707Z,8.80
2023-04-08T20:32:50.351Z,9.47
2023-04-08T20:35:21.116Z,9.00
2023-04-08T20:37:49.696Z,10.23
2023-04-08T20:40:18.426Z,6.87
2023-04-08T20:42:47.181Z,9.20
2023-04-08T20:45:15.612Z,6.97
2023-04-08T20:47:46.138Z,6.30
2023-04-08T20:50:15.303Z,6.73
2023-04-08T20:52:47.163Z,8.63
2023-04-08T20:55:15.751Z,7.90
2023-04-08T20:57:44.485Z,8.43
2023-04-08T21:00:13.764Z,8.13
2023-04-08T21:02:42.917Z,7.80
2023-04-08T21:05:11.516Z,7.80
2023-04-08T21:07:44.441Z,8.63
2023-04-08T21:10:14.696Z,8.80
2023-04-08T21:12:43.402Z,8.87
2023-04-08T21:15:12.653Z,7.93
2023-04-08T21:17:41.064Z,7.43
2023-04-08T21:20:10.722Z,7.63
2023-04-08T21:22:39.386Z,6.67
2023-04-08T21:25:09.194Z,7.10
2023-04-08T21:27:40.784Z,7.37
2023-04-08T21:30:09.834Z,7.33
2023-04-08T21:32:38.902Z,5.77
2023-04-08T21:35:07.715Z,8.40
2023-04-08T21:37:36.785Z,7.10
2023-04-08T21:40:05.649Z,7.40
2023-04-08T21:42:34.039Z,8.37
2023-04-08T21:45:04.100Z,9.40
2023-04-08T21:47:32.825Z,7.33
2023-04-08T21:50:01.324Z,8.90
2023-04-08T21:52:31.351Z,7.30
2023-04-08T21:54:59.777Z,8.10
2023-04-08T21:57:28.640Z,7.63
2023-04-08T21:59:57.236Z,7.97
2023-04-08T22:02:27.237Z,8.03
2023-04-08T22:04:55.525Z,7.47
2023-04-08T22:07:23.885Z,9.83
2023-04-08T22:09:55.592Z,9.07
2023-04-08T22:12:24.143Z,9.13
2023-04-08T22:14:52.532Z,8.40
2023-04-08T22:17:20.900Z,9.93
2023-04-08T22:19:50.667Z,10.23
2023-04-08T22:22:18.961Z,10.30
2023-04-08T22:24:47.245Z,8.87
2023-04-08T22:27:15.506Z,8.00
2023-04-08T22:29:43.837Z,9.83
2023-04-08T22:32:12.226Z,8.33
2023-04-08T22:34:40.607Z,7.17
2023-04-08T22:37:10.296Z,7.27
2023-04-08T22:39:38.622Z,7.67
2023-04-08T22:42:06.976Z,7.90
2023-04-08T22:44:35.259Z,7.17
2023-04-08T22:47:03.470Z,6.10
2023-04-08T22:49:31.803Z,7.87
2023-04-08T22:52:00.021Z,5.77
2023-04-08T22:54:29.750Z,8.17
2023-04-08T22:56:58.335Z,6.70
2023-04-08T22:59:26.594Z,6.90
2023-04-08T23:01:55.045Z,7.60
2023-04-08T23:04:23.826Z,7.13
2023-04-08T23:06:52.678Z,7.10
2023-04-08T23:09:23.619Z,7.53
2023-04-08T23:11:53.821Z,7.60
2023-04-08T23:14:22.137Z,6.97
2023-04-08T23:16:50.492Z,7.37
2023-04-08T23:19:18.782Z,7.73
2023-04-08T23:21:47.072Z,7.97
2023-04-08T23:24:15.411Z,8.07
2023-04-08T23:26:43.659Z,7.13
2023-04-08T23:29:13.353Z,9.70
2023-04-08T23:31:41.781Z,7.60
2023-04-08T23:34:10.329Z,9.70
2023-04-08T23:36:38.951Z,8.47
2023-04-08T23:39:07.321Z,8.47
2023-04-08T23:41:35.662Z,9.20
2023-04-08T23:44:03.908Z,8.37
2023-04-08T23:46:33.602Z,11.17
2023-04-08T23:49:01.885Z,10.43
2023-04-08T23:51:31.306Z,9.53
2023-04-08T23:53:59.595Z,10.77
2023-04-08T23:56:28.342Z,8.40
2023-04-08T23:58:56.683Z,8.87
